sensor_id;sensor_type;location;lat;lon;timestamp;P1;durP1;ratioP1;P2;durP2;ratioP2
8159;SDS011;27404;52.398;9.646;2023-10-09T00:02:05;3.87;;;1.67;;
8159;SDS011;27404;52.398;9.646;2023-10-09T00:04:35;1.87;;;1.20;;
8159;SDS011;27404;52.398;9.646;2023-10-09T00:07:03;2.37;;;1.20;;
8159;SDS011;27404;52.398;9.646;2023-10-09T00:09:29;2.80;;;1.40;;
8159;SDS011;27404;52.398;9.646;2023-10-09T00:11:56;3.33;;;1.17;;
8159;SDS011;27404;52.398;9.646;2023-10-09T00:14:25;2.00;;;1.00;;
8159;SDS011;27404;52.398;9.646;2023-10-09T00:16:55;4.50;;;1.30;;
8159;SDS011;27404;52.398;9.646;2023-10-09T00:19:28;4.57;;;1.40;;
8159;SDS011;27404;52.398;9.646;2023-10-09T00:21:58;3.10;;;1.33;;
8159;SDS011;27404;52.398;9.646;2023-10-09T00:24:31;3.37;;;1.20;;
8159;SDS011;27404;52.398;9.646;2023-10-09T00:26:57;3.77;;;1.30;;
8159;SDS011;27404;52.398;9.646;2023-10-09T00:29:49;2.73;;;1.10;;
8159;SDS011;27404;52.398;9.646;2023-10-09T00:32:15;5.00;;;1.20;;
8159;SDS011;27404;52.398;9.646;2023-10-09T00:34:48;2.67;;;1.33;;
8159;SDS011;27404;52.398;9.646;2023-10-09T00:37:16;2.20;;;1.37;;
8159;SDS011;27404;52.398;9.646;2023-10-09T00:39:42;2.23;;;1.27;;
8159;SDS011;27404;52.398;9.646;2023-10-09T00:42:11;2.57;;;1.20;;
8159;SDS011;27404;52.398;9.646;2023-10-09T00:44:50;2.07;;;1.10;;
8159;SDS011;27404;52.398;9.646;2023-10-09T00:47:16;3.07;;;1.40;;
8159;SDS011;27404;52.398;9.646;2023-10-09T00:49:56;3.43;;;1.60;;
8159;SDS011;27404;52.398;9.646;2023-10-09T00:52:26;1.90;;;1.20;;
8159;SDS011;27404;52.398;9.646;2023-10-09T00:55:18;2.50;;;1.20;;
8159;SDS011;27404;52.398;9.646;2023-10-09T00:58:01;2.53;;;1.13;;
8159;SDS011;27404;52.398;9.646;2023-10-09T01:00:30;3.63;;;1.30;;
8159;SDS011;27404;52.398;9.646;2023-10-09T01:03:08;4.03;;;1.63;;
8159;SDS011;27404;52.398;9.646;2023-10-09T01:05:57;4.27;;;1.20;;
8159;SDS011;27404;52.398;9.646;2023-10-09T01:08:41;4.27;;;1.10;;
8159;SDS011;27404;52.398;9.646;2023-10-09T01:11:08;4.73;;;1.60;;
8159;SDS011;27404;52.398;9.646;2023-10-09T01:13:43;4.73;;;1.30;;
8159;SDS011;27404;52.398;9.646;2023-10-09T01:16:19;2.33;;;1.10;;
8159;SDS011;27404;52.398;9.646;2023-10-09T01:18:49;2.97;;;1.60;;
8159;SDS011;27404;52.398;9.646;2023-10-09T01:21:21;2.17;;;1.30;;
8159;SDS011;27404;52.398;9.646;2023-10-09T01:23:49;3.43;;;1.63;;
8159;SDS011;27404;52.398;9.646;2023-10-09T01:29:13;3.67;;;1.70;;
8159;SDS011;27404;52.398;9.646;2023-10-09T01:31:44;3.37;;;1.50;;
8159;SDS011;27404;52.398;9.646;2023-10-09T01:34:38;3.13;;;1.40;;
8159;SDS011;27404;52.398;9.646;2023-10-09T01:37:03;2.97;;;1.20;;
8159;SDS011;27404;52.398;9.646;2023-10-09T01:39:30;2.53;;;1.20;;
8159;SDS011;27404;52.398;9.646;2023-10-09T01:41:56;3.07;;;1.33;;
8159;SDS011;27404;52.398;9.646;2023-10-09T01:44:30;3.10;;;1.50;;
8159;SDS011;27404;52.398;9.646;2023-10-09T01:47:03;4.27;;;1.40;;
8159;SDS011;27404;52.398;9.646;2023-10-09T01:49:49;5.53;;;1.60;;
8159;SDS011;27404;52.398;9.646;2023-10-09T01:52:15;5.27;;;1.50;;
8159;SDS011;27404;52.398;9.646;2023-10-09T01:54:42;3.53;;;1.87;;
8159;SDS011;27404;52.398;9.646;2023-10-09T01:57:12;3.27;;;1.60;;
8159;SDS011;27404;52.398;9.646;2023-10-09T01:59:38;4.77;;;1.70;;
8159;SDS011;27404;52.398;9.646;2023-10-09T02:02:14;3.07;;;1.57;;
8159;SDS011;27404;52.398;9.646;2023-10-09T02:05:03;4.27;;;1.33;;
8159;SDS011;27404;52.398;9.646;2023-10-09T02:07:39;4.20;;;1.67;;
8159;SDS011;27404;52.398;9.646;2023-10-09T02:10:08;5.00;;;1.80;;
8159;SDS011;27404;52.398;9.646;2023-10-09T02:12:46;3.00;;;1.60;;
8159;SDS011;27404;52.398;9.646;2023-10-09T02:15:12;3.30;;;1.83;;
8159;SDS011;27404;52.398;9.646;2023-10-09T02:17:40;3.73;;;1.63;;
8159;SDS011;27404;52.398;9.646;2023-10-09T02:20:17;5.77;;;2.03;;
8159;SDS011;27404;52.398;9.646;2023-10-09T02:22:53;4.80;;;2.33;;
8159;SDS011;27404;52.398;9.646;2023-10-09T02:25:19;4.50;;;1.90;;
8159;SDS011;27404;52.398;9.646;2023-10-09T02:27:46;5.50;;;2.10;;
8159;SDS011;27404;52.398;9.646;2023-10-09T02:30:19;5.30;;;1.70;;
8159;SDS011;27404;52.398;9.646;2023-10-09T02:32:52;5.77;;;2.03;;
8159;SDS011;27404;52.398;9.646;2023-10-09T02:35:31;4.53;;;1.63;;
8159;SDS011;27404;52.398;9.646;2023-10-09T02:38:04;3.20;;;1.80;;
8159;SDS011;27404;52.398;9.646;2023-10-09T02:40:35;5.53;;;1.90;;
8159;SDS011;27404;52.398;9.646;2023-10-09T02:43:19;4.80;;;2.00;;
8159;SDS011;27404;52.398;9.646;2023-10-09T02:45:44;3.77;;;1.97;;
8159;SDS011;27404;52.398;9.646;2023-10-09T02:48:15;5.73;;;2.20;;
8159;SDS011;27404;52.398;9.646;2023-10-09T02:50:44;4.50;;;2.20;;
8159;SDS011;27404;52.398;9.646;2023-10-09T02:53:10;4.47;;;2.27;;
8159;SDS011;27404;52.398;9.646;2023-10-09T02:55:43;3.73;;;1.93;;
8159;SDS011;27404;52.398;9.646;2023-10-09T02:58:18;4.23;;;1.90;;
8159;SDS011;27404;52.398;9.646;2023-10-09T03:00:46;3.37;;;1.60;;
8159;SDS011;27404;52.398;9.646;2023-10-09T03:03:13;2.30;;;1.63;;
8159;SDS011;27404;52.398;9.646;2023-10-09T03:05:41;6.43;;;2.07;;
8159;SDS011;27404;52.398;9.646;2023-10-09T03:08:07;6.63;;;2.10;;
8159;SDS011;27404;52.398;9.646;2023-10-09T03:10:33;5.20;;;2.07;;
8159;SDS011;27404;52.398;9.646;2023-10-09T03:12:59;5.53;;;2.13;;
8159;SDS011;27404;52.398;9.646;2023-10-09T03:15:26;3.00;;;2.00;;
8159;SDS011;27404;52.398;9.646;2023-10-09T03:17:54;4.67;;;2.23;;
8159;SDS011;27404;52.398;9.646;2023-10-09T03:20:19;4.67;;;2.03;;
8159;SDS011;27404;52.398;9.646;2023-10-09T03:22:45;4.30;;;2.00;;
8159;SDS011;27404;52.398;9.646;2023-10-09T03:25:12;6.60;;;2.43;;
8159;SDS011;27404;52.398;9.646;2023-10-09T03:27:42;4.30;;;2.40;;
8159;SDS011;27404;52.398;9.646;2023-10-09T03:30:10;4.50;;;2.70;;
8159;SDS011;27404;52.398;9.646;2023-10-09T03:32:43;5.43;;;2.80;;
8159;SDS011;27404;52.398;9.646;2023-10-09T03:35:09;5.07;;;2.70;;
8159;SDS011;27404;52.398;9.646;2023-10-09T03:37:39;5.67;;;2.10;;
8159;SDS011;27404;52.398;9.646;2023-10-09T03:40:05;4.83;;;2.17;;
8159;SDS011;27404;52.398;9.646;2023-10-09T03:42:40;6.17;;;2.43;;
8159;SDS011;27404;52.398;9.646;2023-10-09T03:45:07;5.93;;;2.50;;
8159;SDS011;27404;52.398;9.646;2023-10-09T03:47:50;5.00;;;2.80;;
8159;SDS011;27404;52.398;9.646;2023-10-09T03:50:21;4.13;;;2.33;;
8159;SDS011;27404;52.398;9.646;2023-10-09T03:53:01;5.17;;;2.60;;
8159;SDS011;27404;52.398;9.646;2023-10-09T03:55:28;5.40;;;2.50;;
8159;SDS011;27404;52.398;9.646;2023-10-09T03:57:54;6.33;;;2.80;;
8159;SDS011;27404;52.398;9.646;2023-10-09T04:00:23;4.90;;;2.93;;
8159;SDS011;27404;52.398;9.646;2023-10-09T04:02:55;6.97;;;3.10;;
8159;SDS011;27404;52.398;9.646;2023-10-09T04:05:25;5.87;;;3.10;;
8159;SDS011;27404;52.398;9.646;2023-10-09T04:07:51;8.10;;;3.07;;
8159;SDS011;27404;52.398;9.646;2023-10-09T04:10:22;7.37;;;2.97;;
8159;SDS011;27404;52.398;9.646;2023-10-09T04:13:06;5.43;;;2.97;;
8159;SDS011;27404;52.398;9.646;2023-10-09T04:15:35;8.50;;;3.93;;
8159;SDS011;27404;52.398;9.646;2023-10-09T04:18:01;7.57;;;3.80;;
8159;SDS011;27404;52.398;9.646;2023-10-09T04:20:28;8.50;;;4.13;;
8159;SDS011;27404;52.398;9.646;2023-10-09T04:22:53;9.43;;;3.40;;
8159;SDS011;27404;52.398;9.646;2023-10-09T04:25:25;11.83;;;4.73;;
8159;SDS011;27404;52.398;9.646;2023-10-09T04:27:58;8.33;;;4.60;;
8159;SDS011;27404;52.398;9.646;2023-10-09T04:30:39;8.43;;;5.37;;
8159;SDS011;27404;52.398;9.646;2023-10-09T04:33:07;12.83;;;6.00;;
8159;SDS011;27404;52.398;9.646;2023-10-09T04:35:45;11.67;;;6.57;;
8159;SDS011;27404;52.398;9.646;2023-10-09T04:38:31;11.80;;;6.33;;
8159;SDS011;27404;52.398;9.646;2023-10-09T04:40:59;16.87;;;6.83;;
8159;SDS011;27404;52.398;9.646;2023-10-09T04:43:24;15.83;;;8.20;;
8159;SDS011;27404;52.398;9.646;2023-10-09T04:45:51;18.10;;;9.13;;
8159;SDS011;27404;52.398;9.646;2023-10-09T04:48:37;22.60;;;10.83;;
8159;SDS011;27404;52.398;9.646;2023-10-09T04:51:06;23.67;;;11.23;;
8159;SDS011;27404;52.398;9.646;2023-10-09T04:53:49;20.80;;;10.60;;
8159;SDS011;27404;52.398;9.646;2023-10-09T04:56:15;23.90;;;11.70;;
8159;SDS011;27404;52.398;9.646;2023-10-09T04:58:41;28.73;;;12.73;;
8159;SDS011;27404;52.398;9.646;2023-10-09T05:01:07;29.07;;;14.40;;
8159;SDS011;27404;52.398;9.646;2023-10-09T05:03:40;36.17;;;17.20;;
8159;SDS011;27404;52.398;9.646;2023-10-09T05:06:06;33.40;;;16.70;;
8159;SDS011;27404;52.398;9.646;2023-10-09T05:08:58;40.20;;;18.07;;
8159;SDS011;27404;52.398;9.646;2023-10-09T05:11:33;40.03;;;18.80;;
8159;SDS011;27404;52.398;9.646;2023-10-09T05:14:17;40.47;;;18.93;;
8159;SDS011;27404;52.398;9.646;2023-10-09T05:16:51;53.20;;;20.43;;
8159;SDS011;27404;52.398;9.646;2023-10-09T05:19:21;50.63;;;21.90;;
8159;SDS011;27404;52.398;9.646;2023-10-09T05:22:06;51.43;;;23.43;;
8159;SDS011;27404;52.398;9.646;2023-10-09T05:24:42;48.03;;;21.77;;
8159;SDS011;27404;52.398;9.646;2023-10-09T05:27:12;51.50;;;22.50;;
8159;SDS011;27404;52.398;9.646;2023-10-09T05:29:42;48.50;;;23.23;;
8159;SDS011;27404;52.398;9.646;2023-10-09T05:32:24;47.67;;;22.33;;
8159;SDS011;27404;52.398;9.646;2023-10-09T05:35:00;51.13;;;22.70;;
8159;SDS011;27404;52.398;9.646;2023-10-09T05:37:26;56.40;;;22.13;;
8159;SDS011;27404;52.398;9.646;2023-10-09T05:40:02;55.37;;;21.67;;
8159;SDS011;27404;52.398;9.646;2023-10-09T05:42:42;47.70;;;20.53;;
8159;SDS011;27404;52.398;9.646;2023-10-09T05:47:52;54.47;;;21.97;;
8159;SDS011;27404;52.398;9.646;2023-10-09T05:50:22;49.77;;;22.60;;
8159;SDS011;27404;52.398;9.646;2023-10-09T05:52:49;45.93;;;21.83;;
8159;SDS011;27404;52.398;9.646;2023-10-09T05:55:22;52.27;;;23.13;;
8159;SDS011;27404;52.398;9.646;2023-10-09T05:57:52;50.43;;;22.27;;
8159;SDS011;27404;52.398;9.646;2023-10-09T06:00:37;51.37;;;23.20;;
8159;SDS011;27404;52.398;9.646;2023-10-09T06:03:21;50.03;;;22.13;;
8159;SDS011;27404;52.398;9.646;2023-10-09T06:05:54;53.70;;;23.60;;
8159;SDS011;27404;52.398;9.646;2023-10-09T06:08:29;54.20;;;22.73;;
8159;SDS011;27404;52.398;9.646;2023-10-09T06:11:06;53.60;;;22.60;;
8159;SDS011;27404;52.398;9.646;2023-10-09T06:13:52;54.77;;;24.60;;
8159;SDS011;27404;52.398;9.646;2023-10-09T06:16:36;44.50;;;22.03;;
8159;SDS011;27404;52.398;9.646;2023-10-09T06:19:25;50.40;;;22.60;;
8159;SDS011;27404;52.398;9.646;2023-10-09T06:21:55;50.33;;;23.10;;
8159;SDS011;27404;52.398;9.646;2023-10-09T06:24:37;53.33;;;25.03;;
8159;SDS011;27404;52.398;9.646;2023-10-09T06:27:19;52.80;;;22.90;;
8159;SDS011;27404;52.398;9.646;2023-10-09T06:29:55;47.33;;;22.30;;
8159;SDS011;27404;52.398;9.646;2023-10-09T06:32:39;50.30;;;23.13;;
8159;SDS011;27404;52.398;9.646;2023-10-09T06:35:22;47.20;;;20.83;;
8159;SDS011;27404;52.398;9.646;2023-10-09T06:37:55;48.87;;;21.60;;
8159;SDS011;27404;52.398;9.646;2023-10-09T06:43:21;48.40;;;22.80;;
8159;SDS011;27404;52.398;9.646;2023-10-09T06:45:51;52.37;;;22.90;;
8159;SDS011;27404;52.398;9.646;2023-10-09T06:48:23;44.20;;;21.57;;
8159;SDS011;27404;52.398;9.646;2023-10-09T06:51:08;48.03;;;22.27;;
8159;SDS011;27404;52.398;9.646;2023-10-09T06:54:01;44.43;;;21.53;;
8159;SDS011;27404;52.398;9.646;2023-10-09T06:56:34;46.37;;;21.90;;
8159;SDS011;27404;52.398;9.646;2023-10-09T06:59:02;49.13;;;21.33;;
8159;SDS011;27404;52.398;9.646;2023-10-09T07:01:49;44.60;;;21.47;;
8159;SDS011;27404;52.398;9.646;2023-10-09T07:04:32;45.47;;;20.50;;
8159;SDS011;27404;52.398;9.646;2023-10-09T07:06:58;39.07;;;20.60;;
8159;SDS011;27404;52.398;9.646;2023-10-09T07:09:24;47.83;;;21.30;;
8159;SDS011;27404;52.398;9.646;2023-10-09T07:12:07;41.43;;;20.83;;
8159;SDS011;27404;52.398;9.646;2023-10-09T07:14:54;42.00;;;21.33;;
8159;SDS011;27404;52.398;9.646;2023-10-09T07:17:19;45.73;;;22.27;;
8159;SDS011;27404;52.398;9.646;2023-10-09T07:19:51;40.90;;;20.47;;
8159;SDS011;27404;52.398;9.646;2023-10-09T07:22:23;43.83;;;20.93;;
8159;SDS011;27404;52.398;9.646;2023-10-09T07:24:55;44.17;;;21.03;;
8159;SDS011;27404;52.398;9.646;2023-10-09T07:27:21;41.67;;;20.50;;
8159;SDS011;27404;52.398;9.646;2023-10-09T07:30:09;39.87;;;19.50;;
8159;SDS011;27404;52.398;9.646;2023-10-09T07:33:00;38.20;;;19.53;;
8159;SDS011;27404;52.398;9.646;2023-10-09T07:35:49;41.07;;;18.90;;
8159;SDS011;27404;52.398;9.646;2023-10-09T07:38:19;41.63;;;20.37;;
8159;SDS011;27404;52.398;9.646;2023-10-09T07:40:48;50.03;;;20.20;;
8159;SDS011;27404;52.398;9.646;2023-10-09T07:43:38;42.63;;;20.97;;
8159;SDS011;27404;52.398;9.646;2023-10-09T07:46:04;44.57;;;20.73;;
8159;SDS011;27404;52.398;9.646;2023-10-09T07:48:31;40.90;;;20.60;;
8159;SDS011;27404;52.398;9.646;2023-10-09T07:51:14;42.90;;;20.87;;
8159;SDS011;27404;52.398;9.646;2023-10-09T07:53:41;46.33;;;21.77;;
8159;SDS011;27404;52.398;9.646;2023-10-09T07:56:10;45.00;;;21.13;;
8159;SDS011;27404;52.398;9.646;2023-10-09T07:58:39;43.93;;;21.37;;
8159;SDS011;27404;52.398;9.646;2023-10-09T08:01:14;45.30;;;20.87;;
8159;SDS011;27404;52.398;9.646;2023-10-09T08:03:59;42.60;;;20.37;;
8159;SDS011;27404;52.398;9.646;2023-10-09T08:06:30;49.67;;;20.57;;
8159;SDS011;27404;52.398;9.646;2023-10-09T08:09:07;45.03;;;21.20;;
8159;SDS011;27404;52.398;9.646;2023-10-09T08:11:40;44.33;;;21.27;;
8159;SDS011;27404;52.398;9.646;2023-10-09T08:14:13;39.00;;;20.90;;
8159;SDS011;27404;52.398;9.646;2023-10-09T08:16:47;40.60;;;22.00;;
8159;SDS011;27404;52.398;9.646;2023-10-09T08:19:16;47.20;;;20.47;;
8159;SDS011;27404;52.398;9.646;2023-10-09T08:21:57;38.07;;;19.73;;
8159;SDS011;27404;52.398;9.646;2023-10-09T08:24:42;39.20;;;19.90;;
8159;SDS011;27404;52.398;9.646;2023-10-09T08:27:09;39.97;;;18.30;;
8159;SDS011;27404;52.398;9.646;2023-10-09T08:30:11;32.37;;;17.17;;
8159;SDS011;27404;52.398;9.646;2023-10-09T08:32:45;37.13;;;19.53;;
8159;SDS011;27404;52.398;9.646;2023-10-09T08:35:32;37.47;;;18.40;;
8159;SDS011;27404;52.398;9.646;2023-10-09T08:37:59;35.27;;;18.20;;
8159;SDS011;27404;52.398;9.646;2023-10-09T08:40:33;33.23;;;18.43;;
8159;SDS011;27404;52.398;9.646;2023-10-09T08:43:15;34.70;;;18.33;;
8159;SDS011;27404;52.398;9.646;2023-10-09T08:45:46;33.10;;;17.87;;
8159;SDS011;27404;52.398;9.646;2023-10-09T08:48:13;35.30;;;17.73;;
8159;SDS011;27404;52.398;9.646;2023-10-09T08:50:43;38.03;;;18.17;;
8159;SDS011;27404;52.398;9.646;2023-10-09T08:53:10;33.67;;;17.43;;
8159;SDS011;27404;52.398;9.646;2023-10-09T08:55:37;30.23;;;17.17;;
8159;SDS011;27404;52.398;9.646;2023-10-09T08:58:06;28.73;;;15.53;;
8159;SDS011;27404;52.398;9.646;2023-10-09T09:00:41;31.43;;;15.83;;
8159;SDS011;27404;52.398;9.646;2023-10-09T09:03:10;28.07;;;14.87;;
8159;SDS011;27404;52.398;9.646;2023-10-09T09:05:41;33.63;;;15.90;;
8159;SDS011;27404;52.398;9.646;2023-10-09T09:08:21;29.23;;;15.10;;
8159;SDS011;27404;52.398;9.646;2023-10-09T09:10:50;30.43;;;16.87;;
8159;SDS011;27404;52.398;9.646;2023-10-09T09:13:23;34.50;;;16.27;;
8159;SDS011;27404;52.398;9.646;2023-10-09T09:15:49;32.93;;;17.37;;
8159;SDS011;27404;52.398;9.646;2023-10-09T09:18:18;28.20;;;15.60;;
8159;SDS011;27404;52.398;9.646;2023-10-09T09:20:44;33.27;;;17.27;;
8159;SDS011;27404;52.398;9.646;2023-10-09T09:23:14;32.93;;;17.10;;
8159;SDS011;27404;52.398;9.646;2023-10-09T09:25:42;29.97;;;17.73;;
8159;SDS011;27404;52.398;9.646;2023-10-09T09:28:09;40.17;;;18.67;;
8159;SDS011;27404;52.398;9.646;2023-10-09T09:30:44;35.40;;;19.23;;
8159;SDS011;27404;52.398;9.646;2023-10-09T09:33:25;38.50;;;18.37;;
8159;SDS011;27404;52.398;9.646;2023-10-09T09:36:07;32.73;;;18.07;;
8159;SDS011;27404;52.398;9.646;2023-10-09T09:38:36;37.50;;;19.03;;
8159;SDS011;27404;52.398;9.646;2023-10-09T09:41:15;36.70;;;19.10;;
8159;SDS011;27404;52.398;9.646;2023-10-09T09:43:53;38.17;;;19.17;;
8159;SDS011;27404;52.398;9.646;2023-10-09T09:46:31;40.23;;;19.47;;
8159;SDS011;27404;52.398;9.646;2023-10-09T09:49:02;34.33;;;18.80;;
8159;SDS011;27404;52.398;9.646;2023-10-09T09:51:31;34.30;;;19.00;;
8159;SDS011;27404;52.398;9.646;2023-10-09T09:53:56;39.00;;;20.10;;
8159;SDS011;27404;52.398;9.646;2023-10-09T09:56:25;38.67;;;20.27;;
8159;SDS011;27404;52.398;9.646;2023-10-09T09:58:53;39.90;;;21.63;;
8159;SDS011;27404;52.398;9.646;2023-10-09T10:01:26;37.50;;;21.30;;
8159;SDS011;27404;52.398;9.646;2023-10-09T10:04:09;39.00;;;21.60;;
8159;SDS011;27404;52.398;9.646;2023-10-09T10:06:45;37.13;;;20.60;;
8159;SDS011;27404;52.398;9.646;2023-10-09T10:12:09;44.67;;;23.67;;
8159;SDS011;27404;52.398;9.646;2023-10-09T10:17:18;37.30;;;21.83;;
8159;SDS011;27404;52.398;9.646;2023-10-09T10:22:50;43.90;;;24.47;;
8159;SDS011;27404;52.398;9.646;2023-10-09T10:25:37;48.23;;;25.37;;
8159;SDS011;27404;52.398;9.646;2023-10-09T10:28:20;47.23;;;23.83;;
8159;SDS011;27404;52.398;9.646;2023-10-09T10:31:05;40.20;;;22.40;;
8159;SDS011;27404;52.398;9.646;2023-10-09T10:36:21;39.17;;;22.70;;
8159;SDS011;27404;52.398;9.646;2023-10-09T10:39:07;41.70;;;23.87;;
8159;SDS011;27404;52.398;9.646;2023-10-09T10:41:54;38.53;;;22.70;;
8159;SDS011;27404;52.398;9.646;2023-10-09T10:44:27;38.90;;;22.47;;
8159;SDS011;27404;52.398;9.646;2023-10-09T10:46:59;41.83;;;22.83;;
8159;SDS011;27404;52.398;9.646;2023-10-09T10:49:26;38.83;;;22.57;;
8159;SDS011;27404;52.398;9.646;2023-10-09T10:52:02;43.00;;;22.20;;
8159;SDS011;27404;52.398;9.646;2023-10-09T10:54:42;37.33;;;22.93;;
8159;SDS011;27404;52.398;9.646;2023-10-09T10:57:20;40.33;;;22.53;;
8159;SDS011;27404;52.398;9.646;2023-10-09T11:00:09;39.97;;;22.83;;
8159;SDS011;27404;52.398;9.646;2023-10-09T11:02:55;38.13;;;23.73;;
8159;SDS011;27404;52.398;9.646;2023-10-09T11:05:38;38.37;;;23.00;;
8159;SDS011;27404;52.398;9.646;2023-10-09T11:08:10;38.50;;;22.97;;
8159;SDS011;27404;52.398;9.646;2023-10-09T11:10:37;34.30;;;22.77;;
8159;SDS011;27404;52.398;9.646;2023-10-09T11:13:27;35.97;;;23.27;;
8159;SDS011;27404;52.398;9.646;2023-10-09T11:15:55;34.87;;;22.97;;
8159;SDS011;27404;52.398;9.646;2023-10-09T11:18:40;37.77;;;22.30;;
8159;SDS011;27404;52.398;9.646;2023-10-09T11:21:15;32.53;;;22.37;;
8159;SDS011;27404;52.398;9.646;2023-10-09T11:23:41;35.47;;;22.40;;
8159;SDS011;27404;52.398;9.646;2023-10-09T11:26:16;33.43;;;22.57;;
8159;SDS011;27404;52.398;9.646;2023-10-09T11:29:08;29.77;;;21.57;;
8159;SDS011;27404;52.398;9.646;2023-10-09T11:31:59;35.10;;;22.10;;
8159;SDS011;27404;52.398;9.646;2023-10-09T11:34:34;34.20;;;22.87;;
8159;SDS011;27404;52.398;9.646;2023-10-09T11:37:23;39.50;;;24.13;;
8159;SDS011;27404;52.398;9.646;2023-10-09T11:39:53;39.10;;;23.73;;
8159;SDS011;27404;52.398;9.646;2023-10-09T11:42:20;39.73;;;24.40;;
8159;SDS011;27404;52.398;9.646;2023-10-09T11:45:06;36.63;;;22.70;;
8159;SDS011;27404;52.398;9.646;2023-10-09T11:47:48;36.47;;;24.97;;
8159;SDS011;27404;52.398;9.646;2023-10-09T11:53:17;31.87;;;22.30;;
8159;SDS011;27404;52.398;9.646;2023-10-09T11:55:50;34.80;;;21.23;;
8159;SDS011;27404;52.398;9.646;2023-10-09T11:58:20;33.60;;;20.50;;
8159;SDS011;27404;52.398;9.646;2023-10-09T12:00:56;32.20;;;20.13;;
8159;SDS011;27404;52.398;9.646;2023-10-09T12:03:30;35.23;;;20.87;;
8159;SDS011;27404;52.398;9.646;2023-10-09T12:05:57;30.90;;;19.93;;
8159;SDS011;27404;52.398;9.646;2023-10-09T12:08:34;32.40;;;20.70;;
8159;SDS011;27404;52.398;9.646;2023-10-09T12:11:00;30.67;;;18.97;;
8159;SDS011;27404;52.398;9.646;2023-10-09T12:13:28;29.93;;;19.00;;
8159;SDS011;27404;52.398;9.646;2023-10-09T12:15:54;28.63;;;18.70;;
8159;SDS011;27404;52.398;9.646;2023-10-09T12:18:20;29.37;;;19.67;;
8159;SDS011;27404;52.398;9.646;2023-10-09T12:20:47;29.87;;;18.10;;
8159;SDS011;27404;52.398;9.646;2023-10-09T12:23:16;32.17;;;18.47;;
8159;SDS011;27404;52.398;9.646;2023-10-09T12:25:42;30.13;;;18.43;;
8159;SDS011;27404;52.398;9.646;2023-10-09T12:28:10;28.37;;;18.07;;
8159;SDS011;27404;52.398;9.646;2023-10-09T12:30:37;26.43;;;18.40;;
8159;SDS011;27404;52.398;9.646;2023-10-09T12:33:05;27.67;;;18.57;;
8159;SDS011;27404;52.398;9.646;2023-10-09T12:35:35;27.63;;;18.00;;
8159;SDS011;27404;52.398;9.646;2023-10-09T12:38:05;31.80;;;19.10;;
8159;SDS011;27404;52.398;9.646;2023-10-09T12:40:35;29.60;;;19.83;;
8159;SDS011;27404;52.398;9.646;2023-10-09T12:43:03;28.30;;;17.93;;
8159;SDS011;27404;52.398;9.646;2023-10-09T12:45:28;33.30;;;20.17;;
8159;SDS011;27404;52.398;9.646;2023-10-09T12:47:58;32.40;;;20.30;;
8159;SDS011;27404;52.398;9.646;2023-10-09T12:50:27;34.47;;;22.20;;
8159;SDS011;27404;52.398;9.646;2023-10-09T12:52:56;30.07;;;19.97;;
8159;SDS011;27404;52.398;9.646;2023-10-09T12:55:22;29.53;;;19.00;;
8159;SDS011;27404;52.398;9.646;2023-10-09T12:57:57;30.13;;;19.87;;
8159;SDS011;27404;52.398;9.646;2023-10-09T13:00:27;27.33;;;19.93;;
8159;SDS011;27404;52.398;9.646;2023-10-09T13:02:52;27.33;;;18.73;;
8159;SDS011;27404;52.398;9.646;2023-10-09T13:05:18;33.97;;;21.17;;
8159;SDS011;27404;52.398;9.646;2023-10-09T13:07:52;27.27;;;17.97;;
8159;SDS011;27404;52.398;9.646;2023-10-09T13:10:21;27.70;;;19.00;;
8159;SDS011;27404;52.398;9.646;2023-10-09T13:12:48;28.97;;;17.53;;
8159;SDS011;27404;52.398;9.646;2023-10-09T13:15:20;30.17;;;17.73;;
8159;SDS011;27404;52.398;9.646;2023-10-09T13:17:46;24.00;;;16.70;;
8159;SDS011;27404;52.398;9.646;2023-10-09T13:20:12;22.37;;;16.13;;
8159;SDS011;27404;52.398;9.646;2023-10-09T13:22:38;25.20;;;16.73;;
8159;SDS011;27404;52.398;9.646;2023-10-09T13:25:05;32.13;;;18.40;;
8159;SDS011;27404;52.398;9.646;2023-10-09T13:27:31;24.83;;;16.80;;
8159;SDS011;27404;52.398;9.646;2023-10-09T13:30:02;24.27;;;17.77;;
8159;SDS011;27404;52.398;9.646;2023-10-09T13:32:33;23.30;;;15.37;;
8159;SDS011;27404;52.398;9.646;2023-10-09T13:35:04;25.17;;;16.47;;
8159;SDS011;27404;52.398;9.646;2023-10-09T13:37:31;22.27;;;16.07;;
8159;SDS011;27404;52.398;9.646;2023-10-09T13:40:04;24.67;;;16.27;;
8159;SDS011;27404;52.398;9.646;2023-10-09T13:42:35;21.07;;;15.17;;
8159;SDS011;27404;52.398;9.646;2023-10-09T13:45:02;21.53;;;15.93;;
8159;SDS011;27404;52.398;9.646;2023-10-09T13:47:40;21.53;;;15.03;;
8159;SDS011;27404;52.398;9.646;2023-10-09T13:50:09;21.53;;;16.17;;
8159;SDS011;27404;52.398;9.646;2023-10-09T13:52:35;24.50;;;16.67;;
8159;SDS011;27404;52.398;9.646;2023-10-09T13:55:04;21.47;;;15.87;;
8159;SDS011;27404;52.398;9.646;2023-10-09T13:57:40;21.97;;;15.33;;
8159;SDS011;27404;52.398;9.646;2023-10-09T14:00:10;22.00;;;16.37;;
8159;SDS011;27404;52.398;9.646;2023-10-09T14:02:42;22.93;;;16.10;;
8159;SDS011;27404;52.398;9.646;2023-10-09T14:05:08;21.67;;;16.07;;
8159;SDS011;27404;52.398;9.646;2023-10-09T14:07:33;20.67;;;14.77;;
8159;SDS011;27404;52.398;9.646;2023-10-09T14:10:00;20.93;;;14.93;;
8159;SDS011;27404;52.398;9.646;2023-10-09T14:12:43;21.83;;;14.63;;
8159;SDS011;27404;52.398;9.646;2023-10-09T14:15:09;21.60;;;16.30;;
8159;SDS011;27404;52.398;9.646;2023-10-09T14:17:42;22.07;;;15.37;;
8159;SDS011;27404;52.398;9.646;2023-10-09T14:20:08;21.83;;;15.07;;
8159;SDS011;27404;52.398;9.646;2023-10-09T14:22:55;22.67;;;14.80;;
8159;SDS011;27404;52.398;9.646;2023-10-09T14:25:21;21.70;;;14.70;;
8159;SDS011;27404;52.398;9.646;2023-10-09T14:27:46;20.50;;;14.30;;
8159;SDS011;27404;52.398;9.646;2023-10-09T14:30:18;21.60;;;13.67;;
8159;SDS011;27404;52.398;9.646;2023-10-09T14:32:56;24.43;;;15.37;;
8159;SDS011;27404;52.398;9.646;2023-10-09T14:35:22;18.87;;;14.07;;
8159;SDS011;27404;52.398;9.646;2023-10-09T14:37:52;18.60;;;13.57;;
8159;SDS011;27404;52.398;9.646;2023-10-09T14:40:19;19.97;;;13.83;;
8159;SDS011;27404;52.398;9.646;2023-10-09T14:42:55;19.70;;;12.77;;
8159;SDS011;27404;52.398;9.646;2023-10-09T14:45:26;20.70;;;13.53;;
8159;SDS011;27404;52.398;9.646;2023-10-09T14:47:52;22.50;;;13.80;;
8159;SDS011;27404;52.398;9.646;2023-10-09T14:50:19;19.80;;;13.97;;
8159;SDS011;27404;52.398;9.646;2023-10-09T14:52:47;21.13;;;14.27;;
8159;SDS011;27404;52.398;9.646;2023-10-09T14:55:15;21.17;;;13.87;;
8159;SDS011;27404;52.398;9.646;2023-10-09T14:57:46;19.33;;;13.80;;
8159;SDS011;27404;52.398;9.646;2023-10-09T15:00:17;22.07;;;13.77;;
8159;SDS011;27404;52.398;9.646;2023-10-09T15:02:48;20.23;;;13.57;;
8159;SDS011;27404;52.398;9.646;2023-10-09T15:05:16;20.90;;;13.77;;
8159;SDS011;27404;52.398;9.646;2023-10-09T15:07:41;20.47;;;14.23;;
8159;SDS011;27404;52.398;9.646;2023-10-09T15:10:07;17.13;;;13.67;;
8159;SDS011;27404;52.398;9.646;2023-10-09T15:12:34;19.27;;;13.50;;
8159;SDS011;27404;52.398;9.646;2023-10-09T15:15:05;19.40;;;13.57;;
8159;SDS011;27404;52.398;9.646;2023-10-09T15:17:40;18.07;;;13.30;;
8159;SDS011;27404;52.398;9.646;2023-10-09T15:20:12;18.30;;;12.80;;
8159;SDS011;27404;52.398;9.646;2023-10-09T15:22:43;19.17;;;13.63;;
8159;SDS011;27404;52.398;9.646;2023-10-09T15:25:10;16.50;;;12.23;;
8159;SDS011;27404;52.398;9.646;2023-10-09T15:27:45;18.37;;;13.17;;
8159;SDS011;27404;52.398;9.646;2023-10-09T15:30:11;18.03;;;12.80;;
8159;SDS011;27404;52.398;9.646;2023-10-09T15:32:42;18.90;;;11.77;;
8159;SDS011;27404;52.398;9.646;2023-10-09T15:35:08;14.50;;;10.87;;
8159;SDS011;27404;52.398;9.646;2023-10-09T15:37:43;15.87;;;11.13;;
8159;SDS011;27404;52.398;9.646;2023-10-09T15:40:09;14.27;;;10.13;;